sensor_id;sensor_type;location;lat;lon;timestamp;temperature;humidity
11965;DHT22;6042;41.326;19.826;2022-11-15T00:00:59;13.90;99.90
11965;DHT22;6042;41.326;19.826;2022-11-15T00:03:51;13.90;99.90
11965;DHT22;6042;41.326;19.826;2022-11-15T00:06:39;13.90;99.90
11965;DHT22;6042;41.326;19.826;2022-11-15T00:09:28;13.80;99.90
11965;DHT22;6042;41.326;19.826;2022-11-15T00:12:15;13.80;99.90
11965;DHT22;6042;41.326;19.826;2022-11-15T00:15:03;13.90;99.90
11965;DHT22;6042;41.326;19.826;2022-11-15T00:17:52;13.90;99.90
11965;DHT22;6042;41.326;19.826;2022-11-15T00:20:40;13.90;99.90
11965;DHT22;6042;41.326;19.826;2022-11-15T00:23:27;13.90;99.90
11965;DHT22;6042;41.326;19.826;2022-11-15T00:26:15;14.00;99.90
11965;DHT22;6042;41.326;19.826;2022-11-15T00:29:03;14.10;99.90
11965;DHT22;6042;41.326;19.826;2022-11-15T00:31:52;14.20;99.90
11965;DHT22;6042;41.326;19.826;2022-11-15T00:34:41;14.20;99.90
11965;DHT22;6042;41.326;19.826;2022-11-15T00:37:29;14.20;99.90
11965;DHT22;6042;41.326;19.826;2022-11-15T00:40:16;14.20;99.90
11965;DHT22;6042;41.326;19.826;2022-11-15T00:43:04;14.10;99.90
11965;DHT22;6042;41.326;19.826;2022-11-15T00:45:51;14.20;99.90
11965;DHT22;6042;41.326;19.826;2022-11-15T00:48:38;14.30;99.90
11965;DHT22;6042;41.326;19.826;2022-11-15T00:51:27;14.20;99.90
11965;DHT22;6042;41.326;19.826;2022-11-15T00:54:14;14.20;99.90
11965;DHT22;6042;41.326;19.826;2022-11-15T00:57:01;14.00;99.90
11965;DHT22;6042;41.326;19.826;2022-11-15T00:59:49;14.00;99.90
11965;DHT22;6042;41.326;19.826;2022-11-15T01:02:36;14.00;99.90
11965;DHT22;6042;41.326;19.826;2022-11-15T01:05:24;14.00;99.90
11965;DHT22;6042;41.326;19.826;2022-11-15T01:08:14;14.10;99.90
11965;DHT22;6042;41.326;19.826;2022-11-15T01:11:04;14.30;99.90
11965;DHT22;6042;41.326;19.826;2022-11-15T01:13:51;14.30;99.90
11965;DHT22;6042;41.326;19.826;2022-11-15T01:16:39;14.50;99.90
11965;DHT22;6042;41.326;19.826;2022-11-15T01:19:29;14.50;99.90
11965;DHT22;6042;41.326;19.826;2022-11-15T01:22:16;14.50;99.90
11965;DHT22;6042;41.326;19.826;2022-11-15T01:25:06;14.40;99.90
11965;DHT22;6042;41.326;19.826;2022-11-15T01:27:53;14.40;99.90
11965;DHT22;6042;41.326;19.826;2022-11-15T01:30:40;14.30;99.90
11965;DHT22;6042;41.326;19.826;2022-11-15T01:33:28;14.30;99.90
11965;DHT22;6042;41.326;19.826;2022-11-15T01:36:18;14.30;99.90
11965;DHT22;6042;41.326;19.826;2022-11-15T01:39:08;14.30;99.90
11965;DHT22;6042;41.326;19.826;2022-11-15T01:41:57;14.30;99.90
11965;DHT22;6042;41.326;19.826;2022-11-15T01:44:47;14.20;99.90
11965;DHT22;6042;41.326;19.826;2022-11-15T01:47:37;14.10;99.90
11965;DHT22;6042;41.326;19.826;2022-11-15T01:50:28;14.10;99.90
11965;DHT22;6042;41.326;19.826;2022-11-15T01:53:19;14.00;99.90
11965;DHT22;6042;41.326;19.826;2022-11-15T01:56:13;14.10;99.90
11965;DHT22;6042;41.326;19.826;2022-11-15T01:59:05;14.00;99.90
11965;DHT22;6042;41.326;19.826;2022-11-15T02:01:53;14.00;99.90
11965;DHT22;6042;41.326;19.826;2022-11-15T02:04:42;14.00;99.90
11965;DHT22;6042;41.326;19.826;2022-11-15T02:07:33;13.90;99.90
11965;DHT22;6042;41.326;19.826;2022-11-15T02:10:23;14.00;99.90
11965;DHT22;6042;41.326;19.826;2022-11-15T02:13:11;14.10;99.90
11965;DHT22;6042;41.326;19.826;2022-11-15T02:16:15;14.10;99.90
11965;DHT22;6042;41.326;19.826;2022-11-15T02:19:18;14.00;99.90
11965;DHT22;6042;41.326;19.826;2022-11-15T02:22:19;14.00;99.90
11965;DHT22;6042;41.326;19.826;2022-11-15T02:25:30;14.00;99.90
11965;DHT22;6042;41.326;19.826;2022-11-15T02:28:40;14.10;99.90
11965;DHT22;6042;41.326;19.826;2022-11-15T02:31:39;14.10;99.90
11965;DHT22;6042;41.326;19.826;2022-11-15T02:34:37;14.10;99.90
11965;DHT22;6042;41.326;19.826;2022-11-15T02:37:35;14.10;99.90
11965;DHT22;6042;41.326;19.826;2022-11-15T02:40:31;14.10;99.90
11965;DHT22;6042;41.326;19.826;2022-11-15T02:43:25;14.20;99.90
11965;DHT22;6042;41.326;19.826;2022-11-15T02:46:36;14.20;99.90
11965;DHT22;6042;41.326;19.826;2022-11-15T02:49:47;14.20;99.90
11965;DHT22;6042;41.326;19.826;2022-11-15T02:52:35;14.20;99.90
11965;DHT22;6042;41.326;19.826;2022-11-15T02:55:27;14.10;99.90
11965;DHT22;6042;41.326;19.826;2022-11-15T03:01:41;14.10;99.90
11965;DHT22;6042;41.326;19.826;2022-11-15T03:04:39;14.00;99.90
11965;DHT22;6042;41.326;19.826;2022-11-15T03:07:35;14.10;99.90
11965;DHT22;6042;41.326;19.826;2022-11-15T03:10:29;14.00;99.90
11965;DHT22;6042;41.326;19.826;2022-11-15T03:13:24;14.00;99.90
11965;DHT22;6042;41.326;19.826;2022-11-15T03:16:18;14.00;99.90
11965;DHT22;6042;41.326;19.826;2022-11-15T03:19:12;14.00;99.90
11965;DHT22;6042;41.326;19.826;2022-11-15T03:22:03;14.10;99.90
11965;DHT22;6042;41.326;19.826;2022-11-15T03:24:53;14.10;99.90
11965;DHT22;6042;41.326;19.826;2022-11-15T03:27:46;14.20;99.90
11965;DHT22;6042;41.326;19.826;2022-11-15T03:30:36;14.20;99.90
11965;DHT22;6042;41.326;19.826;2022-11-15T03:33:25;14.30;99.90
11965;DHT22;6042;41.326;19.826;2022-11-15T03:36:15;14.20;99.90
11965;DHT22;6042;41.326;19.826;2022-11-15T03:39:06;14.20;99.90
11965;DHT22;6042;41.326;19.826;2022-11-15T03:42:02;14.20;99.90
11965;DHT22;6042;41.326;19.826;2022-11-15T03:44:55;14.20;99.90
11965;DHT22;6042;41.326;19.826;2022-11-15T03:47:49;14.30;99.90
11965;DHT22;6042;41.326;19.826;2022-11-15T03:50:38;14.20;99.90
11965;DHT22;6042;41.326;19.826;2022-11-15T03:53:30;14.20;99.90
11965;DHT22;6042;41.326;19.826;2022-11-15T03:56:18;14.20;99.90
11965;DHT22;6042;41.326;19.826;2022-11-15T03:59:05;14.20;99.90
11965;DHT22;6042;41.326;19.826;2022-11-15T04:01:52;14.30;99.90
11965;DHT22;6042;41.326;19.826;2022-11-15T04:04:40;14.30;99.90
11965;DHT22;6042;41.326;19.826;2022-11-15T04:07:26;14.30;99.90
11965;DHT22;6042;41.326;19.826;2022-11-15T04:10:16;14.40;99.90
11965;DHT22;6042;41.326;19.826;2022-11-15T04:13:03;14.50;99.90
11965;DHT22;6042;41.326;19.826;2022-11-15T04:15:53;14.40;99.90
11965;DHT22;6042;41.326;19.826;2022-11-15T04:18:40;14.30;99.90
11965;DHT22;6042;41.326;19.826;2022-11-15T04:21:27;14.30;99.90
11965;DHT22;6042;41.326;19.826;2022-11-15T04:24:32;14.30;99.90
11965;DHT22;6042;41.326;19.826;2022-11-15T04:27:21;14.30;99.90
11965;DHT22;6042;41.326;19.826;2022-11-15T04:30:09;14.30;99.90
11965;DHT22;6042;41.326;19.826;2022-11-15T04:32:56;14.10;99.90
11965;DHT22;6042;41.326;19.826;2022-11-15T04:35:44;14.10;99.90
11965;DHT22;6042;41.326;19.826;2022-11-15T04:38:51;14.10;99.90
11965;DHT22;6042;41.326;19.826;2022-11-15T04:41:39;14.10;99.90
11965;DHT22;6042;41.326;19.826;2022-11-15T04:44:27;14.20;99.90
11965;DHT22;6042;41.326;19.826;2022-11-15T04:47:15;14.20;99.90
11965;DHT22;6042;41.326;19.826;2022-11-15T04:50:03;14.20;99.90
11965;DHT22;6042;41.326;19.826;2022-11-15T04:52:52;14.20;99.90
11965;DHT22;6042;41.326;19.826;2022-11-15T04:55:44;14.20;99.90
11965;DHT22;6042;41.326;19.826;2022-11-15T04:58:32;14.30;99.90
11965;DHT22;6042;41.326;19.826;2022-11-15T05:01:21;14.30;99.90
11965;DHT22;6042;41.326;19.826;2022-11-15T05:04:11;14.30;99.90
11965;DHT22;6042;41.326;19.826;2022-11-15T05:07:06;14.30;99.90
11965;DHT22;6042;41.326;19.826;2022-11-15T05:09:53;14.30;99.90
11965;DHT22;6042;41.326;19.826;2022-11-15T05:12:40;14.30;99.90
11965;DHT22;6042;41.326;19.826;2022-11-15T05:15:27;14.30;99.90
11965;DHT22;6042;41.326;19.826;2022-11-15T05:18:16;14.20;99.90
11965;DHT22;6042;41.326;19.826;2022-11-15T05:21:10;14.30;99.90
11965;DHT22;6042;41.326;19.826;2022-11-15T05:23:58;14.20;99.90
11965;DHT22;6042;41.326;19.826;2022-11-15T05:26:45;14.10;99.90
11965;DHT22;6042;41.326;19.826;2022-11-15T05:29:33;14.10;99.90
11965;DHT22;6042;41.326;19.826;2022-11-15T05:32:20;14.10;99.90
11965;DHT22;6042;41.326;19.826;2022-11-15T05:35:15;14.20;99.90
11965;DHT22;6042;41.326;19.826;2022-11-15T05:38:05;14.30;99.90
11965;DHT22;6042;41.326;19.826;2022-11-15T05:40:53;14.50;99.90
11965;DHT22;6042;41.326;19.826;2022-11-15T05:43:42;14.60;99.90
11965;DHT22;6042;41.326;19.826;2022-11-15T05:46:30;14.70;99.90
11965;DHT22;6042;41.326;19.826;2022-11-15T05:49:20;14.70;99.90
11965;DHT22;6042;41.326;19.826;2022-11-15T05:52:13;14.70;99.90
11965;DHT22;6042;41.326;19.826;2022-11-15T05:55:02;14.70;99.90
11965;DHT22;6042;41.326;19.826;2022-11-15T05:57:50;14.80;99.90
11965;DHT22;6042;41.326;19.826;2022-11-15T06:00:37;14.80;99.90
11965;DHT22;6042;41.326;19.826;2022-11-15T06:03:24;14.80;99.90
11965;DHT22;6042;41.326;19.826;2022-11-15T06:06:11;14.90;99.90
11965;DHT22;6042;41.326;19.826;2022-11-15T06:09:03;14.80;99.90
11965;DHT22;6042;41.326;19.826;2022-11-15T06:11:50;14.80;99.90
11965;DHT22;6042;41.326;19.826;2022-11-15T06:14:37;14.90;99.90
11965;DHT22;6042;41.326;19.826;2022-11-15T06:17:25;14.90;99.90
11965;DHT22;6042;41.326;19.826;2022-11-15T06:20:12;15.00;99.90
11965;DHT22;6042;41.326;19.826;2022-11-15T06:22:59;15.20;99.90
11965;DHT22;6042;41.326;19.826;2022-11-15T06:25:49;15.20;99.90
11965;DHT22;6042;41.326;19.826;2022-11-15T06:28:37;15.10;99.90
11965;DHT22;6042;41.326;19.826;2022-11-15T06:31:26;15.00;99.90
11965;DHT22;6042;41.326;19.826;2022-11-15T06:34:13;15.00;99.90
11965;DHT22;6042;41.326;19.826;2022-11-15T06:37:00;15.00;99.90
11965;DHT22;6042;41.326;19.826;2022-11-15T06:39:47;15.00;99.90
11965;DHT22;6042;41.326;19.826;2022-11-15T06:42:36;15.20;99.90
11965;DHT22;6042;41.326;19.826;2022-11-15T06:45:25;15.10;99.90
11965;DHT22;6042;41.326;19.826;2022-11-15T06:48:14;15.00;99.90
11965;DHT22;6042;41.326;19.826;2022-11-15T06:51:02;15.00;99.90
11965;DHT22;6042;41.326;19.826;2022-11-15T06:53:50;15.00;99.90
11965;DHT22;6042;41.326;19.826;2022-11-15T06:56:37;15.10;99.90
11965;DHT22;6042;41.326;19.826;2022-11-15T06:59:26;15.00;99.90
11965;DHT22;6042;41.326;19.826;2022-11-15T07:02:13;15.10;99.90
11965;DHT22;6042;41.326;19.826;2022-11-15T07:05:00;15.20;99.90
11965;DHT22;6042;41.326;19.826;2022-11-15T07:07:52;15.20;99.90
11965;DHT22;6042;41.326;19.826;2022-11-15T07:10:40;15.30;99.90
11965;DHT22;6042;41.326;19.826;2022-11-15T07:13:27;15.20;99.90
11965;DHT22;6042;41.326;19.826;2022-11-15T07:16:18;15.10;99.90
11965;DHT22;6042;41.326;19.826;2022-11-15T07:19:05;15.20;99.90
11965;DHT22;6042;41.326;19.826;2022-11-15T07:21:52;15.20;99.90
11965;DHT22;6042;41.326;19.826;2022-11-15T07:24:41;15.30;99.90
11965;DHT22;6042;41.326;19.826;2022-11-15T07:27:31;15.50;99.90
11965;DHT22;6042;41.326;19.826;2022-11-15T07:30:18;15.70;99.90
11965;DHT22;6042;41.326;19.826;2022-11-15T07:33:08;15.90;99.90
11965;DHT22;6042;41.326;19.826;2022-11-15T07:35:58;16.00;99.90
11965;DHT22;6042;41.326;19.826;2022-11-15T07:38:47;16.00;99.90
11965;DHT22;6042;41.326;19.826;2022-11-15T07:41:44;16.00;99.90
11965;DHT22;6042;41.326;19.826;2022-11-15T07:44:33;16.20;99.90
11965;DHT22;6042;41.326;19.826;2022-11-15T07:47:28;16.10;99.90
11965;DHT22;6042;41.326;19.826;2022-11-15T07:50:18;16.20;99.90
11965;DHT22;6042;41.326;19.826;2022-11-15T07:53:05;16.10;99.90
11965;DHT22;6042;41.326;19.826;2022-11-15T07:55:53;16.10;99.90
11965;DHT22;6042;41.326;19.826;2022-11-15T07:58:40;16.20;99.90
11965;DHT22;6042;41.326;19.826;2022-11-15T08:01:27;16.10;99.90
11965;DHT22;6042;41.326;19.826;2022-11-15T08:04:15;16.10;99.90
11965;DHT22;6042;41.326;19.826;2022-11-15T08:07:03;16.20;99.90
11965;DHT22;6042;41.326;19.826;2022-11-15T08:09:51;16.30;99.90
11965;DHT22;6042;41.326;19.826;2022-11-15T08:12:38;16.30;99.90
11965;DHT22;6042;41.326;19.826;2022-11-15T08:15:26;16.40;99.90
11965;DHT22;6042;41.326;19.826;2022-11-15T08:18:17;16.40;99.90
11965;DHT22;6042;41.326;19.826;2022-11-15T08:21:04;16.60;99.90
11965;DHT22;6042;41.326;19.826;2022-11-15T08:23:56;16.80;99.90
11965;DHT22;6042;41.326;19.826;2022-11-15T08:26:44;16.90;99.90
11965;DHT22;6042;41.326;19.826;2022-11-15T08:29:31;16.80;99.90
11965;DHT22;6042;41.326;19.826;2022-11-15T08:32:19;17.00;99.90
11965;DHT22;6042;41.326;19.826;2022-11-15T08:35:08;17.20;99.90
11965;DHT22;6042;41.326;19.826;2022-11-15T08:37:57;17.40;99.90
11965;DHT22;6042;41.326;19.826;2022-11-15T08:40:46;17.40;99.90
11965;DHT22;6042;41.326;19.826;2022-11-15T08:43:33;17.30;99.90
11965;DHT22;6042;41.326;19.826;2022-11-15T08:46:22;17.30;99.90
11965;DHT22;6042;41.326;19.826;2022-11-15T08:49:10;17.30;99.90
11965;DHT22;6042;41.326;19.826;2022-11-15T08:52:00;17.30;99.90
11965;DHT22;6042;41.326;19.826;2022-11-15T08:54:47;17.40;99.90
11965;DHT22;6042;41.326;19.826;2022-11-15T08:57:37;17.50;99.90
11965;DHT22;6042;41.326;19.826;2022-11-15T09:00:24;17.60;99.90
11965;DHT22;6042;41.326;19.826;2022-11-15T09:03:12;17.60;99.90
11965;DHT22;6042;41.326;19.826;2022-11-15T09:06:00;17.60;99.90
11965;DHT22;6042;41.326;19.826;2022-11-15T09:08:48;17.70;99.90
11965;DHT22;6042;41.326;19.826;2022-11-15T09:11:35;17.80;99.90
11965;DHT22;6042;41.326;19.826;2022-11-15T09:14:24;17.90;99.90
11965;DHT22;6042;41.326;19.826;2022-11-15T09:17:11;17.90;99.90
11965;DHT22;6042;41.326;19.826;2022-11-15T09:20:08;18.00;99.90
11965;DHT22;6042;41.326;19.826;2022-11-15T09:22:59;18.10;99.90
11965;DHT22;6042;41.326;19.826;2022-11-15T09:25:47;18.20;99.90
11965;DHT22;6042;41.326;19.826;2022-11-15T09:28:36;18.30;99.90
11965;DHT22;6042;41.326;19.826;2022-11-15T09:31:43;18.30;99.90
11965;DHT22;6042;41.326;19.826;2022-11-15T09:34:30;18.40;99.90
11965;DHT22;6042;41.326;19.826;2022-11-15T09:37:18;18.50;99.90
11965;DHT22;6042;41.326;19.826;2022-11-15T09:40:06;18.60;99.90
11965;DHT22;6042;41.326;19.826;2022-11-15T09:43:08;18.70;99.90
11965;DHT22;6042;41.326;19.826;2022-11-15T09:46:08;18.80;99.90
11965;DHT22;6042;41.326;19.826;2022-11-15T09:49:16;19.00;99.90
11965;DHT22;6042;41.326;19.826;2022-11-15T09:52:01;19.20;99.90
11965;DHT22;6042;41.326;19.826;2022-11-15T09:54:31;19.40;99.90
11965;DHT22;6042;41.326;19.826;2022-11-15T09:57:24;19.40;99.90
11965;DHT22;6042;41.326;19.826;2022-11-15T10:00:12;19.40;99.90
11965;DHT22;6042;41.326;19.826;2022-11-15T10:03:10;19.30;99.90
11965;DHT22;6042;41.326;19.826;2022-11-15T10:05:45;19.40;99.90
11965;DHT22;6042;41.326;19.826;2022-11-15T10:08:28;19.50;99.90
11965;DHT22;6042;41.326;19.826;2022-11-15T10:11:01;19.70;99.90
11965;DHT22;6042;41.326;19.826;2022-11-15T10:13:52;19.90;99.90
11965;DHT22;6042;41.326;19.826;2022-11-15T10:19:26;20.20;99.90
11965;DHT22;6042;41.326;19.826;2022-11-15T10:22:12;20.40;99.90
11965;DHT22;6042;41.326;19.826;2022-11-15T10:24:44;20.60;99.90
11965;DHT22;6042;41.326;19.826;2022-11-15T10:27:15;20.70;99.90
11965;DHT22;6042;41.326;19.826;2022-11-15T10:29:45;20.80;99.90
11965;DHT22;6042;41.326;19.826;2022-11-15T10:32:17;20.70;99.90
11965;DHT22;6042;41.326;19.826;2022-11-15T10:34:49;20.40;99.90
11965;DHT22;6042;41.326;19.826;2022-11-15T10:37:29;20.20;99.90
11965;DHT22;6042;41.326;19.826;2022-11-15T10:40:05;20.20;99.90
11965;DHT22;6042;41.326;19.826;2022-11-15T10:42:34;20.10;99.90
11965;DHT22;6042;41.326;19.826;2022-11-15T10:45:23;19.90;99.90
11965;DHT22;6042;41.326;19.826;2022-11-15T10:47:53;19.90;99.90
11965;DHT22;6042;41.326;19.826;2022-11-15T10:50:34;20.00;99.90
11965;DHT22;6042;41.326;19.826;2022-11-15T10:53:17;20.10;99.90
11965;DHT22;6042;41.326;19.826;2022-11-15T10:55:50;20.10;99.90
11965;DHT22;6042;41.326;19.826;2022-11-15T10:58:32;20.10;99.90
11965;DHT22;6042;41.326;19.826;2022-11-15T11:01:16;20.10;99.90
11965;DHT22;6042;41.326;19.826;2022-11-15T11:03:58;20.10;99.90
11965;DHT22;6042;41.326;19.826;2022-11-15T11:06:27;20.20;99.90
11965;DHT22;6042;41.326;19.826;2022-11-15T11:08:59;20.20;99.90
11965;DHT22;6042;41.326;19.826;2022-11-15T11:11:44;20.50;99.90
11965;DHT22;6042;41.326;19.826;2022-11-15T11:14:23;20.80;99.90
11965;DHT22;6042;41.326;19.826;2022-11-15T11:16:57;20.90;99.90
11965;DHT22;6042;41.326;19.826;2022-11-15T11:19:52;21.00;99.90
11965;DHT22;6042;41.326;19.826;2022-11-15T11:22:32;21.00;99.90
11965;DHT22;6042;41.326;19.826;2022-11-15T11:25:16;20.90;99.90
11965;DHT22;6042;41.326;19.826;2022-11-15T11:27:57;21.10;99.90
11965;DHT22;6042;41.326;19.826;2022-11-15T11:30:38;21.30;99.90
11965;DHT22;6042;41.326;19.826;2022-11-15T11:33:14;21.60;99.90
11965;DHT22;6042;41.326;19.826;2022-11-15T11:35:53;21.80;99.90
11965;DHT22;6042;41.326;19.826;2022-11-15T11:38:39;22.00;99.90
11965;DHT22;6042;41.326;19.826;2022-11-15T11:41:23;22.00;99.90
11965;DHT22;6042;41.326;19.826;2022-11-15T11:44:05;21.60;99.90
11965;DHT22;6042;41.326;19.826;2022-11-15T11:46:48;21.50;99.90
11965;DHT22;6042;41.326;19.826;2022-11-15T11:49:23;21.30;99.90
11965;DHT22;6042;41.326;19.826;2022-11-15T11:51:56;21.00;99.90
11965;DHT22;6042;41.326;19.826;2022-11-15T11:54:32;20.70;99.90
11965;DHT22;6042;41.326;19.826;2022-11-15T11:59:56;20.80;99.90
11965;DHT22;6042;41.326;19.826;2022-11-15T12:02:31;20.70;99.90
11965;DHT22;6042;41.326;19.826;2022-11-15T12:05:09;20.90;99.90
11965;DHT22;6042;41.326;19.826;2022-11-15T12:07:39;21.00;99.90
11965;DHT22;6042;41.326;19.826;2022-11-15T12:10:18;20.80;99.90
11965;DHT22;6042;41.326;19.826;2022-11-15T12:12:55;20.50;99.90
11965;DHT22;6042;41.326;19.826;2022-11-15T12:15:31;20.40;99.90
11965;DHT22;6042;41.326;19.826;2022-11-15T12:18:01;20.30;99.90
11965;DHT22;6042;41.326;19.826;2022-11-15T12:20:37;20.20;99.90
11965;DHT22;6042;41.326;19.826;2022-11-15T12:23:13;20.30;99.90
11965;DHT22;6042;41.326;19.826;2022-11-15T12:25:47;20.30;99.90
11965;DHT22;6042;41.326;19.826;2022-11-15T12:28:24;20.30;99.90
11965;DHT22;6042;41.326;19.826;2022-11-15T12:31:02;20.80;99.90
11965;DHT22;6042;41.326;19.826;2022-11-15T12:33:34;22.30;99.90
11965;DHT22;6042;41.326;19.826;2022-11-15T12:36:08;24.30;99.90
11965;DHT22;6042;41.326;19.826;2022-11-15T12:38:56;25.40;99.90
11965;DHT22;6042;41.326;19.826;2022-11-15T12:41:26;25.60;98.60
11965;DHT22;6042;41.326;19.826;2022-11-15T12:43:57;25.20;97.90
11965;DHT22;6042;41.326;19.826;2022-11-15T12:47:02;24.10;99.00
11965;DHT22;6042;41.326;19.826;2022-11-15T12:49:45;23.10;99.90
11965;DHT22;6042;41.326;19.826;2022-11-15T12:52:14;22.50;99.90
11965;DHT22;6042;41.326;19.826;2022-11-15T12:55:00;22.20;99.90
11965;DHT22;6042;41.326;19.826;2022-11-15T12:57:38;21.70;99.90
11965;DHT22;6042;41.326;19.826;2022-11-15T13:00:38;21.40;99.90
11965;DHT22;6042;41.326;19.826;2022-11-15T13:03:27;21.20;99.90
11965;DHT22;6042;41.326;19.826;2022-11-15T13:06:05;21.00;99.90
11965;DHT22;6042;41.326;19.826;2022-11-15T13:08:52;20.70;99.90
11965;DHT22;6042;41.326;19.826;2022-11-15T13:14:50;20.20;99.90
11965;DHT22;6042;41.326;19.826;2022-11-15T13:17:27;20.00;99.90
11965;DHT22;6042;41.326;19.826;2022-11-15T13:20:09;19.80;99.90
11965;DHT22;6042;41.326;19.826;2022-11-15T13:22:42;19.70;99.90
11965;DHT22;6042;41.326;19.826;2022-11-15T13:25:35;19.60;99.90
11965;DHT22;6042;41.326;19.826;2022-11-15T13:28:11;19.50;99.90
11965;DHT22;6042;41.326;19.826;2022-11-15T13:30:50;19.60;99.90
11965;DHT22;6042;41.326;19.826;2022-11-15T13:33:23;19.50;99.90
11965;DHT22;6042;41.326;19.826;2022-11-15T13:36:03;19.50;99.90
11965;DHT22;6042;41.326;19.826;2022-11-15T13:38:35;19.50;99.90
11965;DHT22;6042;41.326;19.826;2022-11-15T13:41:17;19.50;99.90
11965;DHT22;6042;41.326;19.826;2022-11-15T13:43:47;19.50;99.90
11965;DHT22;6042;41.326;19.826;2022-11-15T13:46:18;19.40;99.90
11965;DHT22;6042;41.326;19.826;2022-11-15T13:48:53;19.50;99.90
11965;DHT22;6042;41.326;19.826;2022-11-15T13:51:33;19.50;99.90
11965;DHT22;6042;41.326;19.826;2022-11-15T13:54:08;19.40;99.90
11965;DHT22;6042;41.326;19.826;2022-11-15T13:56:38;19.40;99.90
11965;DHT22;6042;41.326;19.826;2022-11-15T13:59:10;19.30;99.90
11965;DHT22;6042;41.326;19.826;2022-11-15T14:01:41;19.30;99.90
11965;DHT22;6042;41.326;19.826;2022-11-15T14:04:13;19.30;99.90
11965;DHT22;6042;41.326;19.826;2022-11-15T14:06:50;19.30;99.90
11965;DHT22;6042;41.326;19.826;2022-11-15T14:09:35;19.40;99.90
11965;DHT22;6042;41.326;19.826;2022-11-15T14:12:24;19.40;99.90
11965;DHT22;6042;41.326;19.826;2022-11-15T14:14:53;19.30;99.90
11965;DHT22;6042;41.326;19.826;2022-11-15T14:17:35;19.40;99.90
11965;DHT22;6042;41.326;19.826;2022-11-15T14:23:04;19.40;99.90
11965;DHT22;6042;41.326;19.826;2022-11-15T14:25:36;19.30;99.90
11965;DHT22;6042;41.326;19.826;2022-11-15T14:28:14;19.10;99.90
11965;DHT22;6042;41.326;19.826;2022-11-15T14:30:45;19.00;99.90
11965;DHT22;6042;41.326;19.826;2022-11-15T14:33:23;19.00;99.90
11965;DHT22;6042;41.326;19.826;2022-11-15T14:35:53;18.90;99.90
11965;DHT22;6042;41.326;19.826;2022-11-15T14:38:25;18.90;99.90
11965;DHT22;6042;41.326;19.826;2022-11-15T14:40:55;18.80;99.90
11965;DHT22;6042;41.326;19.826;2022-11-15T14:43:24;18.80;99.90
11965;DHT22;6042;41.326;19.826;2022-11-15T14:45:53;18.70;99.90
11965;DHT22;6042;41.326;19.826;2022-11-15T14:48:22;18.70;99.90
11965;DHT22;6042;41.326;19.826;2022-11-15T14:50:50;18.70;99.90
11965;DHT22;6042;41.326;19.826;2022-11-15T14:53:19;18.60;99.90
11965;DHT22;6042;41.326;19.826;2022-11-15T14:55:50;18.70;99.90
11965;DHT22;6042;41.326;19.826;2022-11-15T14:58:21;18.50;99.90
11965;DHT22;6042;41.326;19.826;2022-11-15T15:00:50;18.50;99.90
11965;DHT22;6042;41.326;19.826;2022-11-15T15:03:19;18.60;99.90
11965;DHT22;6042;41.326;19.826;2022-11-15T15:05:47;18.50;99.90
11965;DHT22;6042;41.326;19.826;2022-11-15T15:08:16;18.40;99.90
11965;DHT22;6042;41.326;19.826;2022-11-15T15:10:45;18.50;99.90
11965;DHT22;6042;41.326;19.826;2022-11-15T15:13:19;18.40;99.90
11965;DHT22;6042;41.326;19.826;2022-11-15T15:15:48;18.40;99.90
11965;DHT22;6042;41.326;19.826;2022-11-15T15:18:19;18.30;99.90
11965;DHT22;6042;41.326;19.826;2022-11-15T15:20:54;18.00;99.90
11965;DHT22;6042;41.326;19.826;2022-11-15T15:23:23;17.90;99.90
11965;DHT22;6042;41.326;19.826;2022-11-15T15:25:56;18.00;99.90
11965;DHT22;6042;41.326;19.826;2022-11-15T15:28:34;17.90;99.90
11965;DHT22;6042;41.326;19.826;2022-11-15T15:31:03;17.80;99.90
11965;DHT22;6042;41.326;19.826;2022-11-15T15:33:32;17.70;99.90
11965;DHT22;6042;41.326;19.826;2022-11-15T15:36:01;17.70;99.90
11965;DHT22;6042;41.326;19.826;2022-11-15T15:38:29;17.60;99.90
11965;DHT22;6042;41.326;19.826;2022-11-15T15:40:59;17.60;99.90
11965;DHT22;6042;41.326;19.826;2022-11-15T15:43:29;17.50;99.90
11965;DHT22;6042;41.326;19.826;2022-11-15T15:46:00;17.40;99.90
11965;DHT22;6042;41.326;19.826;2022-11-15T15:48:28;17.30;99.90
11965;DHT22;6042;41.326;19.826;2022-11-15T15:50:58;17.20;99.90
11965;DHT22;6042;41.326;19.826;2022-11-15T15:53:26;17.10;99.90
11965;DHT22;6042;41.326;19.826;2022-11-15T15:56:00;17.10;99.90
11965;DHT22;6042;41.326;19.826;2022-11-15T15:58:29;17.00;99.90
11965;DHT22;6042;41.326;19.826;2022-11-15T16:01:00;17.00;99.90
11965;DHT22;6042;41.326;19.826;2022-11-15T16:03:29;16.90;99.90
11965;DHT22;6042;41.326;19.826;2022-11-15T16:05:58;16.80;99.90
11965;DHT22;6042;41.326;19.826;2022-11-15T16:08:28;16.80;99.90
11965;DHT22;6042;41.326;19.826;2022-11-15T16:11:16;16.70;99.90
11965;DHT22;6042;41.326;19.826;2022-11-15T16:13:45;16.70;99.90
11965;DHT22;6042;41.326;19.826;2022-11-15T16:16:16;16.80;99.90
11965;DHT22;6042;41.326;19.826;2022-11-15T16:18:45;16.70;99.90
11965;DHT22;6042;41.326;19.826;2022-11-15T16:21:14;16.60;99.90
11965;DHT22;6042;41.326;19.826;2022-11-15T16:23:43;16.50;99.90
11965;DHT22;6042;41.326;19.826;2022-11-15T16:26:20;16.50;99.90
11965;DHT22;6042;41.326;19.826;2022-11-15T16:28:49;16.50;99.90
11965;DHT22;6042;41.326;19.826;2022-11-15T16:31:19;16.50;99.90
11965;DHT22;6042;41.326;19.826;2022-11-15T16:33:49;16.40;99.90
11965;DHT22;6042;41.326;19.826;2022-11-15T16:36:20;16.50;99.90
11965;DHT22;6042;41.326;19.826;2022-11-15T16:38:57;16.60;99.90
11965;DHT22;6042;41.326;19.826;2022-11-15T16:41:25;16.60;99.90
11965;DHT22;6042;41.326;19.826;2022-11-15T16:43:54;16.60;99.90
11965;DHT22;6042;41.326;19.826;2022-11-15T16:46:26;16.60;99.90
11965;DHT22;6042;41.326;19.826;2022-11-15T16:48:55;16.60;99.90
11965;DHT22;6042;41.326;19.826;2022-11-15T16:51:24;16.60;99.90
11965;DHT22;6042;41.326;19.826;2022-11-15T16:53:52;16.50;99.90
11965;DHT22;6042;41.326;19.826;2022-11-15T16:56:24;16.50;99.90
11965;DHT22;6042;41.326;19.826;2022-11-15T16:58:53;16.50;99.90
11965;DHT22;6042;41.326;19.826;2022-11-15T17:01:30;16.40;99.90
11965;DHT22;6042;41.326;19.826;2022-11-15T17:03:59;16.40;99.90
11965;DHT22;6042;41.326;19.826;2022-11-15T17:06:39;16.40;99.90
11965;DHT22;6042;41.326;19.826;2022-11-15T17:09:10;16.30;99.90
11965;DHT22;6042;41.326;19.826;2022-11-15T17:11:40;16.30;99.90
11965;DHT22;6042;41.326;19.826;2022-11-15T17:14:10;16.30;99.90
11965;DHT22;6042;41.326;19.826;2022-11-15T17:16:40;16.20;99.90
11965;DHT22;6042;41.326;19.826;2022-11-15T17:19:13;16.20;99.90
11965;DHT22;6042;41.326;19.826;2022-11-15T17:21:42;16.10;99.90
11965;DHT22;6042;41.326;19.826;2022-11-15T17:24:11;16.00;99.90
11965;DHT22;6042;41.326;19.826;2022-11-15T17:26:41;15.90;99.90